BAW498 LGAV-EGLL
Flight info
| Callsign | BAW498 |
|---|---|
| Flight time | 3h 5m |
| Altitude | 40000 |
| Route | KOR UL53 IPTES DCT DIMIS DCT VAKSU DCT ROTAR DCT BORMI DCT RESIA DCT ELMUR L613 HOC DCT LUL DCT RLP DCT ROTSI DCT KOTUN DCT NINAL DCT ABNUR DCT DIMAL DCT ALESO |
| Aircraft | B772/H-SDE2E3FGHIJ5LORVWXY/LB1D1 |
Departure
| Time | 2026-05-04 11:59 |
|---|---|
| Airport | Athens Eleftherios Venizelos International Airport (LGAV) |
Arrival
| Time | 2026-05-04 15:04 |
|---|---|
| Airport | London Heathrow Airport (EGLL) |
| Time | Latitude | Longitude | Altitude | Speed | Heading |
|---|---|---|---|---|---|
| 2026-05-04 11:26 | 37.93282 | 23.94547 | 305 ft | 0 kts | 308° |
| 2026-05-04 11:49 | 37.93272 | 23.94562 | 306 ft | 4 kts | 302° |
| 2026-05-04 11:50 | 37.93260 | 23.94592 | 305 ft | 4 kts | 284° |
| 2026-05-04 11:50 | 37.93258 | 23.94624 | 303 ft | 4 kts | 249° |
| 2026-05-04 11:50 | 37.93267 | 23.94641 | 304 ft | 0 kts | 217° |
| 2026-05-04 11:53 | 37.93261 | 23.94636 | 305 ft | 4 kts | 217° |
| 2026-05-04 11:55 | 37.92845 | 23.94517 | 309 ft | 14 kts | 217° |
| 2026-05-04 11:55 | 37.92751 | 23.94428 | 310 ft | 17 kts | 216° |
| 2026-05-04 11:56 | 37.92654 | 23.94337 | 309 ft | 17 kts | 217° |
| 2026-05-04 11:56 | 37.92558 | 23.94246 | 311 ft | 17 kts | 217° |
| 2026-05-04 11:56 | 37.92458 | 23.94169 | 310 ft | 16 kts | 186° |
| 2026-05-04 11:56 | 37.92442 | 23.94172 | 310 ft | 3 kts | 166° |
| 2026-05-04 11:57 | 37.92413 | 23.94214 | 310 ft | 7 kts | 107° |
| 2026-05-04 11:57 | 37.92413 | 23.94280 | 311 ft | 7 kts | 89° |
| 2026-05-04 11:57 | 37.92415 | 23.94346 | 313 ft | 7 kts | 87° |
| 2026-05-04 11:57 | 37.92436 | 23.94403 | 313 ft | 7 kts | 40° |
| 2026-05-04 11:58 | 37.92443 | 23.94410 | 313 ft | 0 kts | 38° |
| 2026-05-04 11:58 | 37.92546 | 23.94511 | 312 ft | 61 kts | 37° |
| 2026-05-04 11:58 | 37.93142 | 23.95074 | 304 ft | 151 kts | 37° |
| 2026-05-04 11:59 | 37.94104 | 23.95963 | 894 ft | 184 kts | 37° |
| 2026-05-04 11:59 | 37.95151 | 23.96947 | 2003 ft | 183 kts | 32° |
| 2026-05-04 11:59 | 37.96188 | 23.97938 | 2642 ft | 195 kts | 33° |
| 2026-05-04 11:59 | 37.97316 | 23.99013 | 2994 ft | 216 kts | 33° |
| 2026-05-04 12:00 | 37.98577 | 24.00191 | 3533 ft | 229 kts | 33° |
| 2026-05-04 12:00 | 37.99847 | 24.01357 | 4509 ft | 220 kts | 31° |
| 2026-05-04 12:00 | 38.01094 | 24.02540 | 5130 ft | 231 kts | 33° |
| 2026-05-04 12:00 | 38.02409 | 24.03831 | 5582 ft | 247 kts | 34° |
| 2026-05-04 12:01 | 38.03795 | 24.05208 | 6207 ft | 257 kts | 34° |
| 2026-05-04 12:01 | 38.05211 | 24.06571 | 7108 ft | 245 kts | 28° |
| 2026-05-04 12:02 | 38.10770 | 23.98621 | 10202 ft | 286 kts | 271° |
| 2026-05-04 12:03 | 38.10673 | 23.96039 | 10623 ft | 304 kts | 271° |
| 2026-05-04 12:03 | 38.10571 | 23.93277 | 10825 ft | 330 kts | 271° |
| 2026-05-04 12:03 | 38.10462 | 23.90253 | 11099 ft | 354 kts | 271° |
| 2026-05-04 12:03 | 38.10344 | 23.87068 | 11826 ft | 365 kts | 271° |
| 2026-05-04 12:04 | 38.10231 | 23.83803 | 12813 ft | 372 kts | 271° |
| 2026-05-04 12:04 | 38.10118 | 23.80494 | 13911 ft | 378 kts | 271° |
| 2026-05-04 12:04 | 38.10007 | 23.77127 | 14875 ft | 384 kts | 270° |
| 2026-05-04 12:04 | 38.09894 | 23.73712 | 15857 ft | 389 kts | 271° |
| 2026-05-04 12:05 | 38.09780 | 23.70293 | 16933 ft | 392 kts | 270° |
| 2026-05-04 12:05 | 38.09666 | 23.66805 | 17892 ft | 400 kts | 271° |
| 2026-05-04 12:05 | 38.09550 | 23.63248 | 18771 ft | 407 kts | 270° |
| 2026-05-04 12:05 | 38.09428 | 23.59630 | 19667 ft | 411 kts | 271° |
| 2026-05-04 12:06 | 38.09307 | 23.55982 | 20618 ft | 415 kts | 271° |
| 2026-05-04 12:06 | 38.09183 | 23.52301 | 21516 ft | 419 kts | 270° |
| 2026-05-04 12:06 | 38.09144 | 23.48607 | 22251 ft | 418 kts | 278° |
| 2026-05-04 12:06 | 38.09869 | 23.45095 | 22907 ft | 418 kts | 298° |
| 2026-05-04 12:07 | 38.11484 | 23.42050 | 23813 ft | 411 kts | 315° |
| 2026-05-04 12:07 | 38.13425 | 23.39518 | 24962 ft | 396 kts | 316° |
| 2026-05-04 12:07 | 38.15325 | 23.36961 | 25701 ft | 399 kts | 315° |
| 2026-05-04 12:07 | 38.17221 | 23.34349 | 26256 ft | 404 kts | 315° |
| 2026-05-04 12:08 | 38.19131 | 23.31700 | 26812 ft | 408 kts | 315° |
| 2026-05-04 12:08 | 38.21055 | 23.29024 | 27388 ft | 412 kts | 315° |
| 2026-05-04 12:08 | 38.22999 | 23.26320 | 27985 ft | 414 kts | 315° |
| 2026-05-04 12:08 | 38.24927 | 23.23637 | 28551 ft | 416 kts | 315° |
| 2026-05-04 12:09 | 38.26889 | 23.20907 | 29082 ft | 419 kts | 315° |
| 2026-05-04 12:09 | 38.28868 | 23.18153 | 29560 ft | 422 kts | 315° |
| 2026-05-04 12:09 | 38.30855 | 23.15387 | 30006 ft | 424 kts | 315° |
| 2026-05-04 12:09 | 38.32856 | 23.12599 | 30385 ft | 426 kts | 315° |
| 2026-05-04 12:10 | 38.34865 | 23.09798 | 30647 ft | 429 kts | 315° |
| 2026-05-04 12:10 | 38.36878 | 23.06989 | 31057 ft | 428 kts | 315° |
| 2026-05-04 12:10 | 38.38886 | 23.04183 | 31478 ft | 427 kts | 315° |
| 2026-05-04 12:10 | 38.40862 | 23.01419 | 31886 ft | 426 kts | 315° |
| 2026-05-04 12:11 | 38.42861 | 22.98620 | 32278 ft | 426 kts | 315° |
| 2026-05-04 12:11 | 38.44862 | 22.95818 | 32684 ft | 425 kts | 315° |
| 2026-05-04 12:11 | 38.46859 | 22.93018 | 33077 ft | 424 kts | 315° |
| 2026-05-04 12:11 | 38.48817 | 22.90270 | 33473 ft | 424 kts | 315° |
| 2026-05-04 12:12 | 38.50799 | 22.87487 | 33875 ft | 423 kts | 315° |
| 2026-05-04 12:12 | 38.52777 | 22.84708 | 34272 ft | 422 kts | 315° |
| 2026-05-04 12:12 | 38.54753 | 22.81929 | 34549 ft | 423 kts | 315° |
| 2026-05-04 12:12 | 38.56740 | 22.79130 | 34798 ft | 425 kts | 315° |
| 2026-05-04 12:13 | 38.58711 | 22.76353 | 35059 ft | 425 kts | 315° |
| 2026-05-04 12:14 | 38.72682 | 22.56594 | 37159 ft | 429 kts | 314° |
| 2026-05-04 12:15 | 38.74684 | 22.53752 | 37436 ft | 430 kts | 314° |
| 2026-05-04 12:15 | 38.76702 | 22.50886 | 37647 ft | 433 kts | 314° |
| 2026-05-04 12:15 | 38.78727 | 22.48007 | 37939 ft | 434 kts | 314° |
| 2026-05-04 12:15 | 38.80747 | 22.45130 | 38246 ft | 433 kts | 314° |
| 2026-05-04 12:16 | 38.82740 | 22.42290 | 38632 ft | 431 kts | 314° |
| 2026-05-04 12:16 | 38.84753 | 22.39419 | 38889 ft | 432 kts | 314° |
| 2026-05-04 12:16 | 38.86771 | 22.36540 | 39088 ft | 434 kts | 314° |
| 2026-05-04 12:16 | 38.88788 | 22.33659 | 39278 ft | 434 kts | 314° |
| 2026-05-04 12:17 | 38.90807 | 22.30772 | 39507 ft | 434 kts | 314° |
| 2026-05-04 12:17 | 38.92823 | 22.27887 | 39724 ft | 434 kts | 314° |
| 2026-05-04 12:17 | 38.94845 | 22.24990 | 39932 ft | 435 kts | 314° |
| 2026-05-04 12:17 | 38.96846 | 22.22122 | 40041 ft | 438 kts | 313° |
| 2026-05-04 12:18 | 39.00928 | 22.16261 | 40135 ft | 440 kts | 313° |
| 2026-05-04 12:18 | 39.04997 | 22.10405 | 40122 ft | 436 kts | 313° |
| 2026-05-04 12:19 | 39.09037 | 22.04581 | 40123 ft | 434 kts | 313° |
| 2026-05-04 12:19 | 39.13028 | 21.98819 | 40125 ft | 433 kts | 313° |
| 2026-05-04 12:20 | 39.17045 | 21.93009 | 40128 ft | 433 kts | 313° |
| 2026-05-04 12:20 | 39.21039 | 21.87222 | 40121 ft | 435 kts | 313° |
| 2026-05-04 12:21 | 39.25075 | 21.81363 | 40131 ft | 436 kts | 313° |
| 2026-05-04 12:21 | 39.29079 | 21.75537 | 40115 ft | 437 kts | 313° |
| 2026-05-04 12:22 | 39.33115 | 21.69655 | 40115 ft | 437 kts | 313° |
| 2026-05-04 12:22 | 39.37151 | 21.63762 | 40127 ft | 437 kts | 313° |
| 2026-05-04 12:23 | 39.41188 | 21.57856 | 40116 ft | 438 kts | 313° |
| 2026-05-04 12:23 | 39.45192 | 21.51987 | 40111 ft | 437 kts | 313° |
| 2026-05-04 12:24 | 39.49210 | 21.46087 | 40123 ft | 436 kts | 313° |
| 2026-05-04 12:24 | 39.53230 | 21.40173 | 40113 ft | 437 kts | 313° |
| 2026-05-04 12:25 | 39.57226 | 21.34284 | 40121 ft | 438 kts | 313° |
| 2026-05-04 12:25 | 39.61247 | 21.28345 | 40121 ft | 438 kts | 313° |
| 2026-05-04 12:26 | 39.65272 | 21.22389 | 40113 ft | 438 kts | 313° |
| 2026-05-04 12:26 | 39.69287 | 21.16435 | 40125 ft | 438 kts | 313° |
| 2026-05-04 12:27 | 39.73303 | 21.10471 | 40112 ft | 438 kts | 313° |
| 2026-05-04 12:27 | 39.77295 | 21.04529 | 40111 ft | 438 kts | 313° |
| 2026-05-04 12:28 | 39.81297 | 20.98563 | 40130 ft | 437 kts | 313° |
| 2026-05-04 12:28 | 39.85299 | 20.92583 | 40113 ft | 437 kts | 313° |
| 2026-05-04 12:29 | 39.89277 | 20.86629 | 40119 ft | 438 kts | 313° |
| 2026-05-04 12:29 | 39.93283 | 20.80626 | 40093 ft | 439 kts | 313° |
| 2026-05-04 12:30 | 39.96611 | 20.75619 | 40098 ft | 439 kts | 313° |
| 2026-05-04 12:30 | 40.01272 | 20.68601 | 40102 ft | 441 kts | 313° |
| 2026-05-04 12:31 | 40.04620 | 20.63552 | 40088 ft | 441 kts | 313° |
| 2026-05-04 12:31 | 40.08879 | 20.57813 | 40084 ft | 439 kts | 321° |
| 2026-05-04 12:32 | 40.16097 | 20.50418 | 40088 ft | 439 kts | 323° |
| 2026-05-04 12:33 | 40.20885 | 20.45530 | 40077 ft | 439 kts | 323° |
| 2026-05-04 12:33 | 40.25693 | 20.40584 | 40084 ft | 439 kts | 323° |
| 2026-05-04 12:34 | 40.30472 | 20.35648 | 40091 ft | 440 kts | 323° |
| 2026-05-04 12:34 | 40.35288 | 20.30662 | 40085 ft | 440 kts | 323° |
| 2026-05-04 12:35 | 40.40066 | 20.25706 | 40096 ft | 440 kts | 323° |
| 2026-05-04 12:35 | 40.44863 | 20.20721 | 40094 ft | 440 kts | 323° |
| 2026-05-04 12:36 | 40.49658 | 20.15729 | 40092 ft | 440 kts | 322° |
| 2026-05-04 12:36 | 40.54462 | 20.10719 | 40084 ft | 440 kts | 322° |
| 2026-05-04 12:37 | 40.59222 | 20.05746 | 40103 ft | 439 kts | 322° |
| 2026-05-04 12:37 | 40.64023 | 20.00720 | 40100 ft | 440 kts | 322° |
| 2026-05-04 12:38 | 40.68815 | 19.95693 | 40099 ft | 440 kts | 322° |
| 2026-05-04 12:38 | 40.73587 | 19.90679 | 40102 ft | 440 kts | 322° |
| 2026-05-04 12:39 | 40.78390 | 19.85622 | 40101 ft | 441 kts | 322° |
| 2026-05-04 12:39 | 40.83154 | 19.80597 | 40098 ft | 441 kts | 322° |
| 2026-05-04 12:40 | 40.87951 | 19.75527 | 40096 ft | 440 kts | 322° |
| 2026-05-04 12:40 | 40.92729 | 19.70468 | 40109 ft | 439 kts | 322° |
| 2026-05-04 12:41 | 40.97479 | 19.65428 | 40119 ft | 439 kts | 322° |
| 2026-05-04 12:41 | 41.02252 | 19.60355 | 40116 ft | 440 kts | 322° |
| 2026-05-04 12:42 | 41.07025 | 19.55273 | 40118 ft | 440 kts | 322° |
| 2026-05-04 12:42 | 41.11765 | 19.50215 | 40125 ft | 440 kts | 322° |
| 2026-05-04 12:43 | 41.16545 | 19.45106 | 40114 ft | 440 kts | 322° |
| 2026-05-04 12:43 | 41.21314 | 19.39996 | 40118 ft | 440 kts | 322° |
| 2026-05-04 12:44 | 41.26051 | 19.34913 | 40126 ft | 440 kts | 321° |
| 2026-05-04 12:44 | 41.30810 | 19.29796 | 40125 ft | 440 kts | 321° |
| 2026-05-04 12:45 | 41.35569 | 19.24669 | 40125 ft | 440 kts | 321° |
| 2026-05-04 12:45 | 41.40329 | 19.19530 | 40129 ft | 440 kts | 321° |
| 2026-05-04 12:46 | 41.45059 | 19.14415 | 40122 ft | 440 kts | 321° |
| 2026-05-04 12:46 | 41.49822 | 19.09254 | 40120 ft | 440 kts | 321° |
| 2026-05-04 12:47 | 41.54555 | 19.04115 | 40121 ft | 440 kts | 321° |
| 2026-05-04 12:47 | 41.59312 | 18.98940 | 40124 ft | 441 kts | 321° |
| 2026-05-04 12:48 | 41.64071 | 18.93753 | 40131 ft | 441 kts | 321° |
| 2026-05-04 12:48 | 41.68802 | 18.88585 | 40133 ft | 441 kts | 321° |
| 2026-05-04 12:49 | 41.73564 | 18.83374 | 40126 ft | 441 kts | 321° |
| 2026-05-04 12:49 | 41.78326 | 18.78153 | 40128 ft | 442 kts | 321° |
| 2026-05-04 12:50 | 41.83053 | 18.72959 | 40119 ft | 441 kts | 321° |
| 2026-05-04 12:50 | 41.87809 | 18.67723 | 40130 ft | 441 kts | 321° |
| 2026-05-04 12:51 | 41.92556 | 18.62486 | 40134 ft | 442 kts | 321° |
| 2026-05-04 12:51 | 41.97285 | 18.57259 | 40131 ft | 442 kts | 321° |
| 2026-05-04 12:52 | 42.01955 | 18.51833 | 40132 ft | 443 kts | 315° |
| 2026-05-04 12:52 | 42.06047 | 18.45610 | 40129 ft | 443 kts | 311° |
| 2026-05-04 12:53 | 42.10034 | 18.39334 | 40123 ft | 443 kts | 311° |
| 2026-05-04 12:53 | 42.14052 | 18.33026 | 40135 ft | 443 kts | 311° |
| 2026-05-04 12:54 | 42.18085 | 18.26710 | 40134 ft | 443 kts | 311° |
| 2026-05-04 12:54 | 42.22097 | 18.20426 | 40138 ft | 444 kts | 311° |
| 2026-05-04 12:55 | 42.26129 | 18.14098 | 40144 ft | 444 kts | 311° |
| 2026-05-04 12:55 | 42.30133 | 18.07800 | 40139 ft | 444 kts | 311° |
| 2026-05-04 12:56 | 42.34157 | 18.01457 | 40140 ft | 444 kts | 311° |
| 2026-05-04 12:56 | 42.38185 | 17.95094 | 40145 ft | 444 kts | 311° |
| 2026-05-04 12:57 | 42.42200 | 17.88736 | 40147 ft | 444 kts | 311° |
| 2026-05-04 12:57 | 42.46193 | 17.82401 | 40134 ft | 444 kts | 311° |
| 2026-05-04 12:58 | 42.50208 | 17.76017 | 40134 ft | 445 kts | 311° |
| 2026-05-04 12:58 | 42.54230 | 17.69607 | 40127 ft | 444 kts | 311° |
| 2026-05-04 12:59 | 42.58206 | 17.63258 | 40131 ft | 444 kts | 311° |
| 2026-05-04 12:59 | 42.62199 | 17.56867 | 40128 ft | 444 kts | 311° |
| 2026-05-04 13:00 | 42.66196 | 17.50456 | 40130 ft | 444 kts | 311° |
| 2026-05-04 13:00 | 42.70184 | 17.44047 | 40133 ft | 444 kts | 311° |
| 2026-05-04 13:01 | 42.74148 | 17.37660 | 40127 ft | 444 kts | 310° |
| 2026-05-04 13:01 | 42.78142 | 17.31212 | 40125 ft | 445 kts | 310° |
| 2026-05-04 13:02 | 42.82128 | 17.24762 | 40141 ft | 445 kts | 310° |
| 2026-05-04 13:02 | 42.86090 | 17.18339 | 40127 ft | 445 kts | 310° |
| 2026-05-04 13:03 | 42.90062 | 17.11882 | 40126 ft | 445 kts | 310° |
| 2026-05-04 13:03 | 42.94045 | 17.05395 | 40124 ft | 445 kts | 310° |
| 2026-05-04 13:04 | 42.97998 | 16.98945 | 40133 ft | 445 kts | 310° |
| 2026-05-04 13:04 | 43.01970 | 16.92446 | 40132 ft | 445 kts | 310° |
| 2026-05-04 13:05 | 43.05936 | 16.85943 | 40128 ft | 444 kts | 310° |
| 2026-05-04 13:05 | 43.09866 | 16.79485 | 40111 ft | 444 kts | 310° |
| 2026-05-04 13:06 | 43.13818 | 16.72977 | 40131 ft | 444 kts | 310° |
| 2026-05-04 13:06 | 43.17770 | 16.66454 | 40128 ft | 445 kts | 309° |
| 2026-05-04 13:07 | 43.21723 | 16.59914 | 40113 ft | 445 kts | 309° |
| 2026-05-04 13:07 | 43.25653 | 16.53399 | 40132 ft | 445 kts | 309° |
| 2026-05-04 13:08 | 43.29602 | 16.46837 | 40136 ft | 445 kts | 309° |
| 2026-05-04 13:08 | 43.33551 | 16.40261 | 40136 ft | 446 kts | 309° |
| 2026-05-04 13:09 | 43.37500 | 16.33669 | 40133 ft | 446 kts | 309° |
| 2026-05-04 13:09 | 43.41422 | 16.27108 | 40117 ft | 446 kts | 309° |
| 2026-05-04 13:10 | 43.45372 | 16.20486 | 40132 ft | 446 kts | 308° |
| 2026-05-04 13:10 | 43.49289 | 16.13903 | 40138 ft | 446 kts | 309° |
| 2026-05-04 13:11 | 43.53228 | 16.07268 | 40138 ft | 447 kts | 308° |
| 2026-05-04 13:11 | 43.57169 | 16.00616 | 40140 ft | 447 kts | 308° |
| 2026-05-04 13:12 | 43.61083 | 15.93993 | 40138 ft | 447 kts | 308° |
| 2026-05-04 13:12 | 43.65027 | 15.87305 | 40122 ft | 448 kts | 308° |
| 2026-05-04 13:13 | 43.68931 | 15.80667 | 40129 ft | 447 kts | 308° |
| 2026-05-04 13:13 | 43.72855 | 15.73982 | 40135 ft | 447 kts | 308° |
| 2026-05-04 13:14 | 43.76783 | 15.67275 | 40133 ft | 447 kts | 308° |
| 2026-05-04 13:14 | 43.80686 | 15.60596 | 40114 ft | 448 kts | 308° |
| 2026-05-04 13:15 | 43.84601 | 15.53879 | 40132 ft | 448 kts | 307° |
| 2026-05-04 13:15 | 43.88497 | 15.47179 | 40129 ft | 449 kts | 307° |
| 2026-05-04 13:16 | 43.92417 | 15.40424 | 40133 ft | 449 kts | 307° |
| 2026-05-04 13:16 | 43.96337 | 15.33651 | 40125 ft | 449 kts | 307° |
| 2026-05-04 13:17 | 44.00222 | 15.26923 | 40138 ft | 449 kts | 307° |
| 2026-05-04 13:17 | 44.04133 | 15.20134 | 40118 ft | 450 kts | 307° |
| 2026-05-04 13:18 | 44.08049 | 15.13323 | 40133 ft | 450 kts | 307° |
| 2026-05-04 13:18 | 44.11935 | 15.06546 | 40131 ft | 450 kts | 307° |
| 2026-05-04 13:19 | 44.15844 | 14.99715 | 40118 ft | 449 kts | 307° |
| 2026-05-04 13:19 | 44.19720 | 14.92924 | 40114 ft | 450 kts | 307° |
| 2026-05-04 13:20 | 44.23616 | 14.86081 | 40104 ft | 450 kts | 307° |
| 2026-05-04 13:20 | 44.27493 | 14.79257 | 40131 ft | 450 kts | 307° |
| 2026-05-04 13:21 | 44.31387 | 14.72384 | 40107 ft | 450 kts | 306° |
| 2026-05-04 13:21 | 44.34614 | 14.66679 | 40104 ft | 450 kts | 306° |
| 2026-05-04 13:22 | 44.38505 | 14.59782 | 40103 ft | 450 kts | 306° |
| 2026-05-04 13:22 | 44.42362 | 14.52931 | 40117 ft | 450 kts | 306° |
| 2026-05-04 13:23 | 44.46232 | 14.46039 | 40118 ft | 450 kts | 306° |
| 2026-05-04 13:23 | 44.50106 | 14.39124 | 40108 ft | 451 kts | 306° |
| 2026-05-04 13:24 | 44.53977 | 14.32198 | 40104 ft | 452 kts | 306° |
| 2026-05-04 13:24 | 44.57833 | 14.25281 | 40113 ft | 452 kts | 306° |
| 2026-05-04 13:25 | 44.63627 | 14.14857 | 40106 ft | 452 kts | 306° |
| 2026-05-04 13:25 | 44.67503 | 14.07863 | 40105 ft | 452 kts | 306° |
| 2026-05-04 13:26 | 44.71366 | 14.00876 | 40124 ft | 452 kts | 306° |
| 2026-05-04 13:26 | 44.75203 | 13.93916 | 40125 ft | 453 kts | 306° |
| 2026-05-04 13:27 | 44.79065 | 13.86896 | 40127 ft | 453 kts | 306° |
| 2026-05-04 13:27 | 44.82902 | 13.79905 | 40126 ft | 453 kts | 306° |
| 2026-05-04 13:28 | 44.86759 | 13.72859 | 40126 ft | 453 kts | 306° |
| 2026-05-04 13:28 | 44.90606 | 13.65813 | 40119 ft | 453 kts | 306° |
| 2026-05-04 13:29 | 44.94430 | 13.58795 | 40114 ft | 453 kts | 306° |
| 2026-05-04 13:29 | 44.98274 | 13.51720 | 40107 ft | 453 kts | 306° |
| 2026-05-04 13:30 | 45.02090 | 13.44679 | 40103 ft | 453 kts | 305° |
| 2026-05-04 13:30 | 45.05923 | 13.37591 | 40090 ft | 454 kts | 305° |
| 2026-05-04 13:31 | 45.09757 | 13.30482 | 40093 ft | 454 kts | 305° |
| 2026-05-04 13:31 | 45.13589 | 13.23359 | 40082 ft | 454 kts | 305° |
| 2026-05-04 13:32 | 45.17390 | 13.16276 | 40081 ft | 454 kts | 305° |
| 2026-05-04 13:32 | 45.21206 | 13.09147 | 40077 ft | 454 kts | 305° |
| 2026-05-04 13:33 | 45.25020 | 13.02007 | 40072 ft | 454 kts | 305° |
| 2026-05-04 13:33 | 45.28562 | 12.94585 | 40072 ft | 452 kts | 300° |
| 2026-05-04 13:34 | 45.31856 | 12.86949 | 40070 ft | 453 kts | 300° |
| 2026-05-04 13:34 | 45.35123 | 12.79348 | 40066 ft | 453 kts | 300° |
| 2026-05-04 13:35 | 45.40069 | 12.67884 | 40070 ft | 453 kts | 300° |
| 2026-05-04 13:36 | 45.43365 | 12.60241 | 40069 ft | 453 kts | 300° |
| 2026-05-04 13:36 | 45.46660 | 12.52580 | 40074 ft | 452 kts | 300° |
| 2026-05-04 13:37 | 45.49922 | 12.44973 | 40079 ft | 453 kts | 299° |
| 2026-05-04 13:37 | 45.53203 | 12.37299 | 40078 ft | 453 kts | 299° |
| 2026-05-04 13:38 | 45.56482 | 12.29608 | 40077 ft | 453 kts | 299° |
| 2026-05-04 13:38 | 45.59760 | 12.21900 | 40077 ft | 454 kts | 299° |
| 2026-05-04 13:39 | 45.63012 | 12.14232 | 40084 ft | 454 kts | 299° |
| 2026-05-04 13:39 | 45.66284 | 12.06496 | 40076 ft | 454 kts | 299° |
| 2026-05-04 13:40 | 45.69528 | 11.98803 | 40077 ft | 453 kts | 299° |
| 2026-05-04 13:40 | 45.72783 | 11.91063 | 40054 ft | 453 kts | 299° |
| 2026-05-04 13:41 | 45.76031 | 11.83321 | 40071 ft | 453 kts | 298° |
| 2026-05-04 13:41 | 45.79258 | 11.75604 | 40061 ft | 454 kts | 298° |
| 2026-05-04 13:42 | 45.84126 | 11.63924 | 40048 ft | 454 kts | 298° |
| 2026-05-04 13:42 | 45.87370 | 11.56115 | 40079 ft | 454 kts | 298° |
| 2026-05-04 13:43 | 45.90582 | 11.48360 | 40068 ft | 455 kts | 298° |
| 2026-05-04 13:43 | 45.93809 | 11.40547 | 40072 ft | 455 kts | 298° |
| 2026-05-04 13:44 | 45.97041 | 11.32698 | 40084 ft | 455 kts | 298° |
| 2026-05-04 13:44 | 46.00240 | 11.24909 | 40095 ft | 455 kts | 298° |
| 2026-05-04 13:45 | 46.03456 | 11.17060 | 40117 ft | 454 kts | 298° |
| 2026-05-04 13:45 | 46.06621 | 11.09215 | 40126 ft | 456 kts | 297° |
| 2026-05-04 13:46 | 46.09781 | 11.01286 | 40149 ft | 456 kts | 297° |
| 2026-05-04 13:46 | 46.12939 | 10.93342 | 40128 ft | 456 kts | 297° |
| 2026-05-04 13:47 | 46.16091 | 10.85410 | 40150 ft | 455 kts | 297° |
| 2026-05-04 13:47 | 46.19219 | 10.77512 | 40137 ft | 457 kts | 297° |
| 2026-05-04 13:48 | 46.22374 | 10.69526 | 40107 ft | 458 kts | 297° |
| 2026-05-04 13:48 | 46.25532 | 10.61512 | 40097 ft | 457 kts | 297° |
| 2026-05-04 13:49 | 46.28665 | 10.53535 | 40096 ft | 458 kts | 297° |
| 2026-05-04 13:49 | 46.31811 | 10.45499 | 40102 ft | 458 kts | 297° |
| 2026-05-04 13:50 | 46.34933 | 10.37506 | 40096 ft | 459 kts | 297° |
| 2026-05-04 13:50 | 46.38070 | 10.29448 | 40118 ft | 459 kts | 297° |
| 2026-05-04 13:51 | 46.41203 | 10.21377 | 40137 ft | 461 kts | 296° |
| 2026-05-04 13:51 | 46.44342 | 10.13268 | 40141 ft | 460 kts | 296° |
| 2026-05-04 13:52 | 46.49413 | 10.01515 | 40155 ft | 463 kts | 307° |
| 2026-05-04 13:53 | 46.53686 | 9.94470 | 40146 ft | 462 kts | 309° |
| 2026-05-04 13:53 | 46.57959 | 9.87562 | 40160 ft | 463 kts | 309° |
| 2026-05-04 13:54 | 46.64474 | 9.76873 | 40167 ft | 478 kts | 308° |
| 2026-05-04 13:55 | 46.71121 | 9.65850 | 40135 ft | 489 kts | 308° |
| 2026-05-04 13:55 | 46.77868 | 9.54624 | 40077 ft | 492 kts | 308° |
| 2026-05-04 13:56 | 46.82374 | 9.47104 | 40057 ft | 491 kts | 308° |
| 2026-05-04 13:57 | 46.89098 | 9.35838 | 40037 ft | 490 kts | 308° |
| 2026-05-04 13:58 | 46.98042 | 9.20782 | 40002 ft | 489 kts | 308° |
| 2026-05-04 13:58 | 47.04718 | 9.09486 | 39996 ft | 490 kts | 308° |
| 2026-05-04 13:59 | 47.09186 | 9.01901 | 39983 ft | 490 kts | 307° |
| 2026-05-04 14:00 | 47.15366 | 8.90068 | 39994 ft | 485 kts | 296° |
| 2026-05-04 14:00 | 47.19361 | 8.76496 | 39967 ft | 481 kts | 287° |
| 2026-05-04 14:01 | 47.21634 | 8.67282 | 39973 ft | 482 kts | 287° |
| 2026-05-04 14:02 | 47.25150 | 8.53395 | 39967 ft | 482 kts | 287° |
| 2026-05-04 14:02 | 47.27473 | 8.44155 | 39971 ft | 483 kts | 287° |
| 2026-05-04 14:03 | 47.29814 | 8.34846 | 39965 ft | 484 kts | 287° |
| 2026-05-04 14:03 | 47.32136 | 8.25572 | 39976 ft | 484 kts | 287° |
| 2026-05-04 14:04 | 47.35622 | 8.11573 | 39970 ft | 485 kts | 287° |
| 2026-05-04 14:04 | 47.37925 | 8.02280 | 39972 ft | 485 kts | 287° |
| 2026-05-04 14:05 | 47.41387 | 7.88232 | 39978 ft | 485 kts | 287° |
| 2026-05-04 14:06 | 47.43683 | 7.78871 | 39985 ft | 485 kts | 287° |
| 2026-05-04 14:06 | 47.45978 | 7.69475 | 39991 ft | 485 kts | 287° |
| 2026-05-04 14:07 | 47.47868 | 7.60022 | 39998 ft | 482 kts | 281° |
| 2026-05-04 14:07 | 47.49442 | 7.50367 | 40016 ft | 482 kts | 281° |
| 2026-05-04 14:08 | 47.51009 | 7.40708 | 40003 ft | 483 kts | 281° |
| 2026-05-04 14:08 | 47.52594 | 7.31044 | 39992 ft | 483 kts | 281° |
| 2026-05-04 14:09 | 47.54959 | 7.16636 | 40007 ft | 481 kts | 281° |
| 2026-05-04 14:10 | 47.57310 | 7.02183 | 40026 ft | 481 kts | 280° |
| 2026-05-04 14:10 | 47.58860 | 6.92573 | 40018 ft | 481 kts | 280° |
| 2026-05-04 14:11 | 47.60409 | 6.82915 | 40028 ft | 480 kts | 280° |
| 2026-05-04 14:11 | 47.62454 | 6.70078 | 40036 ft | 481 kts | 280° |
| 2026-05-04 14:12 | 47.63982 | 6.60426 | 40028 ft | 481 kts | 280° |
| 2026-05-04 14:13 | 47.66251 | 6.45986 | 40015 ft | 481 kts | 280° |
| 2026-05-04 14:13 | 47.67765 | 6.36280 | 40023 ft | 481 kts | 280° |
| 2026-05-04 14:14 | 47.69377 | 6.26634 | 40019 ft | 483 kts | 284° |
| 2026-05-04 14:14 | 47.72425 | 6.12407 | 40045 ft | 484 kts | 284° |
| 2026-05-04 14:15 | 47.76494 | 5.93287 | 40007 ft | 485 kts | 284° |
| 2026-05-04 14:16 | 47.79493 | 5.78933 | 40010 ft | 483 kts | 284° |
| 2026-05-04 14:17 | 47.82457 | 5.64655 | 40007 ft | 483 kts | 284° |
| 2026-05-04 14:18 | 47.85420 | 5.50278 | 40002 ft | 483 kts | 283° |
| 2026-05-04 14:19 | 47.89385 | 5.31141 | 39992 ft | 486 kts | 287° |
| 2026-05-04 14:19 | 47.92522 | 5.22186 | 39989 ft | 494 kts | 300° |
| 2026-05-04 14:20 | 47.96913 | 5.14190 | 39991 ft | 499 kts | 309° |
| 2026-05-04 14:20 | 48.01633 | 5.06615 | 39989 ft | 501 kts | 309° |
| 2026-05-04 14:21 | 48.08716 | 4.95056 | 39972 ft | 502 kts | 308° |
| 2026-05-04 14:21 | 48.13396 | 4.87286 | 39969 ft | 503 kts | 308° |
| 2026-05-04 14:22 | 48.18053 | 4.79527 | 39966 ft | 503 kts | 308° |
| 2026-05-04 14:22 | 48.22713 | 4.71750 | 39964 ft | 503 kts | 308° |
| 2026-05-04 14:23 | 48.29734 | 4.59990 | 39963 ft | 503 kts | 308° |
| 2026-05-04 14:24 | 48.34377 | 4.52157 | 39963 ft | 504 kts | 308° |
| 2026-05-04 14:24 | 48.39039 | 4.44263 | 39957 ft | 504 kts | 308° |
| 2026-05-04 14:25 | 48.43669 | 4.36404 | 39968 ft | 503 kts | 308° |
| 2026-05-04 14:25 | 48.50637 | 4.24532 | 39969 ft | 504 kts | 308° |
| 2026-05-04 14:26 | 48.55291 | 4.16572 | 39971 ft | 505 kts | 308° |
| 2026-05-04 14:26 | 48.59911 | 4.08647 | 39964 ft | 505 kts | 308° |
| 2026-05-04 14:27 | 48.64563 | 4.00643 | 39966 ft | 505 kts | 308° |
| 2026-05-04 14:27 | 48.69205 | 3.92632 | 39969 ft | 505 kts | 308° |
| 2026-05-04 14:28 | 48.73893 | 3.84763 | 39962 ft | 507 kts | 311° |
| 2026-05-04 14:28 | 48.78940 | 3.77236 | 39968 ft | 508 kts | 313° |
| 2026-05-04 14:29 | 48.89084 | 3.62279 | 39959 ft | 511 kts | 312° |
| 2026-05-04 14:30 | 48.94148 | 3.54701 | 39959 ft | 509 kts | 312° |
| 2026-05-04 14:31 | 49.01669 | 3.43380 | 39963 ft | 507 kts | 312° |
| 2026-05-04 14:32 | 49.11667 | 3.28262 | 39960 ft | 506 kts | 312° |
| 2026-05-04 14:32 | 49.16660 | 3.20680 | 39958 ft | 506 kts | 312° |
| 2026-05-04 14:33 | 49.21647 | 3.13084 | 39966 ft | 505 kts | 312° |
| 2026-05-04 14:33 | 49.26632 | 3.05470 | 39970 ft | 506 kts | 312° |
| 2026-05-04 14:34 | 49.31590 | 2.97871 | 39949 ft | 506 kts | 312° |
| 2026-05-04 14:34 | 49.36541 | 2.90260 | 39948 ft | 505 kts | 312° |
| 2026-05-04 14:35 | 49.41514 | 2.82593 | 39953 ft | 505 kts | 312° |
| 2026-05-04 14:35 | 49.46446 | 2.74966 | 39953 ft | 505 kts | 312° |
| 2026-05-04 14:36 | 49.51399 | 2.67283 | 39970 ft | 505 kts | 312° |
| 2026-05-04 14:36 | 49.56356 | 2.59570 | 39959 ft | 506 kts | 312° |
| 2026-05-04 14:37 | 49.61403 | 2.51970 | 39954 ft | 507 kts | 317° |
| 2026-05-04 14:37 | 49.66963 | 2.45328 | 39956 ft | 509 kts | 321° |
| 2026-05-04 14:38 | 49.72655 | 2.38782 | 39955 ft | 509 kts | 321° |
| 2026-05-04 14:38 | 49.78316 | 2.32180 | 39944 ft | 509 kts | 320° |
| 2026-05-04 14:39 | 49.83914 | 2.25566 | 39962 ft | 509 kts | 320° |
| 2026-05-04 14:39 | 49.89544 | 2.18879 | 39953 ft | 510 kts | 320° |
| 2026-05-04 14:40 | 49.98000 | 2.08810 | 39950 ft | 510 kts | 320° |
| 2026-05-04 14:40 | 50.03602 | 2.02117 | 39952 ft | 510 kts | 320° |
| 2026-05-04 14:41 | 50.09226 | 1.95375 | 39954 ft | 510 kts | 320° |
| 2026-05-04 14:42 | 50.19976 | 1.81732 | 39918 ft | 483 kts | 314° |
| 2026-05-04 14:42 | 50.22371 | 1.78071 | 39671 ft | 482 kts | 313° |
| 2026-05-04 14:42 | 50.24756 | 1.74378 | 39361 ft | 483 kts | 313° |
| 2026-05-04 14:43 | 50.27144 | 1.70679 | 39029 ft | 484 kts | 313° |
| 2026-05-04 14:43 | 50.29548 | 1.66972 | 38705 ft | 485 kts | 313° |
| 2026-05-04 14:43 | 50.31952 | 1.63281 | 38030 ft | 485 kts | 313° |
| 2026-05-04 14:43 | 50.34362 | 1.59590 | 37351 ft | 483 kts | 313° |
| 2026-05-04 14:44 | 50.36756 | 1.55924 | 36664 ft | 481 kts | 313° |
| 2026-05-04 14:44 | 50.39149 | 1.52253 | 35964 ft | 480 kts | 313° |
| 2026-05-04 14:44 | 50.41536 | 1.48583 | 35193 ft | 481 kts | 312° |
| 2026-05-04 14:44 | 50.43955 | 1.44850 | 34377 ft | 507 kts | 312° |
| 2026-05-04 14:45 | 50.46528 | 1.40872 | 33489 ft | 530 kts | 312° |
| 2026-05-04 14:45 | 50.49202 | 1.36740 | 32739 ft | 543 kts | 313° |
| 2026-05-04 14:45 | 50.51766 | 1.32660 | 32273 ft | 501 kts | 310° |
| 2026-05-04 14:45 | 50.54042 | 1.28736 | 31167 ft | 475 kts | 309° |
| 2026-05-04 14:46 | 50.56230 | 1.24890 | 30144 ft | 475 kts | 309° |
| 2026-05-04 14:46 | 50.58440 | 1.21074 | 29487 ft | 468 kts | 310° |
| 2026-05-04 14:46 | 50.60701 | 1.17399 | 28790 ft | 464 kts | 312° |
| 2026-05-04 14:46 | 50.62976 | 1.13843 | 28136 ft | 478 kts | 313° |
| 2026-05-04 14:47 | 50.65420 | 1.10046 | 27439 ft | 508 kts | 313° |
| 2026-05-04 14:47 | 50.67984 | 1.06044 | 26868 ft | 529 kts | 313° |
| 2026-05-04 14:47 | 50.70566 | 1.01990 | 26638 ft | 507 kts | 313° |
| 2026-05-04 14:47 | 50.72907 | 0.98301 | 25851 ft | 479 kts | 313° |
| 2026-05-04 14:48 | 50.75173 | 0.94706 | 24972 ft | 465 kts | 312° |
| 2026-05-04 14:48 | 50.77451 | 0.91063 | 24504 ft | 463 kts | 312° |
| 2026-05-04 14:48 | 50.79692 | 0.87476 | 24249 ft | 455 kts | 312° |
| 2026-05-04 14:48 | 50.81902 | 0.83939 | 24061 ft | 448 kts | 312° |
| 2026-05-04 14:49 | 50.84083 | 0.80448 | 23950 ft | 442 kts | 312° |
| 2026-05-04 14:49 | 50.86241 | 0.76990 | 23856 ft | 437 kts | 312° |
| 2026-05-04 14:49 | 50.88344 | 0.73617 | 23708 ft | 433 kts | 312° |
| 2026-05-04 14:49 | 50.90453 | 0.70229 | 23546 ft | 427 kts | 312° |
| 2026-05-04 14:50 | 50.92538 | 0.66872 | 23154 ft | 426 kts | 312° |
| 2026-05-04 14:50 | 50.94623 | 0.63512 | 22750 ft | 426 kts | 312° |
| 2026-05-04 14:50 | 50.96700 | 0.60159 | 22342 ft | 425 kts | 312° |
| 2026-05-04 14:50 | 50.98770 | 0.56817 | 21941 ft | 423 kts | 312° |
| 2026-05-04 14:51 | 51.00827 | 0.53488 | 21554 ft | 421 kts | 312° |
| 2026-05-04 14:51 | 51.02872 | 0.50176 | 21151 ft | 419 kts | 312° |
| 2026-05-04 14:51 | 51.04894 | 0.46900 | 20769 ft | 404 kts | 312° |
| 2026-05-04 14:51 | 51.06810 | 0.43795 | 20343 ft | 383 kts | 312° |
| 2026-05-04 14:52 | 51.08644 | 0.40920 | 19966 ft | 370 kts | 314° |
| 2026-05-04 14:52 | 51.10501 | 0.38110 | 19602 ft | 367 kts | 314° |
| 2026-05-04 14:52 | 51.12313 | 0.35383 | 19215 ft | 347 kts | 314° |
| 2026-05-04 14:52 | 51.14000 | 0.32831 | 18826 ft | 321 kts | 314° |
| 2026-05-04 14:53 | 51.15566 | 0.30445 | 18444 ft | 302 kts | 314° |
| 2026-05-04 14:53 | 51.17057 | 0.28163 | 18034 ft | 293 kts | 314° |
| 2026-05-04 14:53 | 51.18515 | 0.25927 | 17671 ft | 297 kts | 314° |
| 2026-05-04 14:53 | 51.20018 | 0.23619 | 17288 ft | 301 kts | 314° |
| 2026-05-04 14:54 | 51.21526 | 0.21302 | 16891 ft | 300 kts | 314° |
| 2026-05-04 14:54 | 51.23047 | 0.18966 | 16295 ft | 307 kts | 314° |
| 2026-05-04 14:54 | 51.24676 | 0.16758 | 15609 ft | 307 kts | 329° |
| 2026-05-04 14:54 | 51.26634 | 0.15595 | 14940 ft | 295 kts | 345° |
| 2026-05-04 14:55 | 51.28545 | 0.14707 | 14324 ft | 284 kts | 341° |
| 2026-05-04 14:55 | 51.30412 | 0.13748 | 13603 ft | 279 kts | 341° |
| 2026-05-04 14:55 | 51.32250 | 0.12791 | 12808 ft | 275 kts | 341° |
| 2026-05-04 14:55 | 51.34058 | 0.11846 | 12073 ft | 272 kts | 340° |
| 2026-05-04 14:56 | 51.35855 | 0.10924 | 11316 ft | 269 kts | 340° |
| 2026-05-04 14:56 | 51.37632 | 0.10025 | 10574 ft | 266 kts | 341° |
| 2026-05-04 14:56 | 51.39367 | 0.09152 | 9854 ft | 263 kts | 339° |
| 2026-05-04 14:56 | 51.40935 | 0.07766 | 9032 ft | 256 kts | 314° |
| 2026-05-04 14:57 | 51.41988 | 0.05552 | 8290 ft | 250 kts | 301° |
| 2026-05-04 14:57 | 51.42923 | 0.03216 | 7531 ft | 247 kts | 301° |
| 2026-05-04 14:57 | 51.43842 | 0.00906 | 6819 ft | 243 kts | 301° |
| 2026-05-04 14:57 | 51.44715 | -0.01362 | 6130 ft | 235 kts | 297° |
| 2026-05-04 14:58 | 51.45300 | -0.03796 | 5351 ft | 233 kts | 286° |
| 2026-05-04 14:58 | 51.45721 | -0.06301 | 4624 ft | 231 kts | 284° |
| 2026-05-04 14:58 | 51.46090 | -0.08662 | 4331 ft | 212 kts | 284° |
| 2026-05-04 14:58 | 51.46319 | -0.10168 | 4158 ft | 201 kts | 284° |
| 2026-05-04 14:59 | 51.46631 | -0.12900 | 3816 ft | 177 kts | 275° |
| 2026-05-04 14:59 | 51.46678 | -0.14826 | 3604 ft | 170 kts | 271° |
| 2026-05-04 14:59 | 51.46673 | -0.18619 | 3174 ft | 172 kts | 271° |
| 2026-05-04 15:00 | 51.46667 | -0.19889 | 3012 ft | 171 kts | 271° |
| 2026-05-04 15:00 | 51.46650 | -0.22391 | 2721 ft | 168 kts | 271° |
| 2026-05-04 15:00 | 51.46642 | -0.23658 | 2567 ft | 169 kts | 271° |
| 2026-05-04 15:01 | 51.46618 | -0.27401 | 2116 ft | 170 kts | 271° |
| 2026-05-04 15:01 | 51.46605 | -0.29269 | 1886 ft | 162 kts | 272° |
| 2026-05-04 15:01 | 51.46586 | -0.30972 | 1618 ft | 143 kts | 271° |
| 2026-05-04 15:01 | 51.46567 | -0.32525 | 1396 ft | 137 kts | 272° |
| 2026-05-04 15:02 | 51.46575 | -0.34045 | 1253 ft | 136 kts | 271° |
| 2026-05-04 15:02 | 51.46547 | -0.35570 | 1082 ft | 137 kts | 269° |
| 2026-05-04 15:02 | 51.46530 | -0.37065 | 886 ft | 133 kts | 272° |
| 2026-05-04 15:02 | 51.46535 | -0.38580 | 749 ft | 138 kts | 273° |
| 2026-05-04 15:03 | 51.46529 | -0.40132 | 569 ft | 137 kts | 271° |
| 2026-05-04 15:03 | 51.46509 | -0.41627 | 370 ft | 132 kts | 271° |
| 2026-05-04 15:03 | 51.46489 | -0.43079 | 181 ft | 127 kts | 271° |
| 2026-05-04 15:03 | 51.46491 | -0.44437 | 93 ft | 116 kts | 274° |
| 2026-05-04 15:04 | 51.46497 | -0.45675 | 92 ft | 100 kts | 271° |
| 2026-05-04 15:04 | 51.46489 | -0.46492 | 94 ft | 48 kts | 277° |
| 2026-05-04 15:04 | 51.46558 | -0.46787 | 94 ft | 0 kts | 298° |
| 2026-05-04 15:04 | 51.46574 | -0.46825 | 94 ft | 8 kts | 315° |
| 2026-05-04 15:05 | 51.46624 | -0.46858 | 94 ft | 8 kts | 340° |
| 2026-05-04 15:05 | 51.46655 | -0.46923 | 95 ft | 8 kts | 279° |
| 2026-05-04 15:05 | 51.46655 | -0.47051 | 94 ft | 13 kts | 270° |
| 2026-05-04 15:05 | 51.46656 | -0.47193 | 94 ft | 13 kts | 270° |
| 2026-05-04 15:06 | 51.46656 | -0.47335 | 93 ft | 13 kts | 270° |
| 2026-05-04 15:06 | 51.46656 | -0.47478 | 93 ft | 13 kts | 269° |
| 2026-05-04 15:06 | 51.46654 | -0.47701 | 90 ft | 13 kts | 269° |
| 2026-05-04 15:07 | 51.46660 | -0.47829 | 92 ft | 9 kts | 296° |
| 2026-05-04 15:07 | 51.46715 | -0.47866 | 92 ft | 9 kts | 358° |
| 2026-05-04 15:07 | 51.46778 | -0.47865 | 94 ft | 9 kts | 0° |
| 2026-05-04 15:07 | 51.46839 | -0.47867 | 91 ft | 9 kts | 359° |
| 2026-05-04 15:08 | 51.46900 | -0.47862 | 94 ft | 8 kts | 25° |
| 2026-05-04 15:08 | 51.46916 | -0.47777 | 94 ft | 8 kts | 86° |
| 2026-05-04 15:08 | 51.46917 | -0.47726 | 91 ft | 0 kts | 89° |
| 2026-05-04 15:08 | 51.46917 | -0.47723 | 91 ft | 0 kts | 89° |